createdAt,value
2017-10-24T00:02:10.588Z,28.20
2017-10-24T00:04:38.909Z,20.53
2017-10-24T00:07:07.294Z,17.67
2017-10-24T00:09:35.616Z,20.53
2017-10-24T00:12:03.964Z,23.70
2017-10-24T00:14:32.297Z,21.73
2017-10-24T00:17:01.426Z,22.40
2017-10-24T00:19:29.808Z,22.57
2017-10-24T00:21:58.191Z,23.27
2017-10-24T00:24:27.374Z,20.90
2017-10-24T00:26:55.736Z,21.50
2017-10-24T00:29:24.132Z,17.17
2017-10-24T00:31:52.462Z,22.30
2017-10-24T00:34:20.852Z,18.80
2017-10-24T00:36:49.241Z,23.07
2017-10-24T00:39:17.645Z,25.20
2017-10-24T00:41:46.798Z,24.23
2017-10-24T00:44:15.121Z,24.10
2017-10-24T00:46:43.483Z,21.03
2017-10-24T00:49:11.804Z,20.17
2017-10-24T00:51:40.119Z,20.67
2017-10-24T00:54:09.241Z,20.77
2017-10-24T00:56:38.382Z,33.30
2017-10-24T00:59:06.731Z,17.10
2017-10-24T01:01:35.831Z,23.90
2017-10-24T01:04:04.919Z,21.50
2017-10-24T01:06:33.291Z,18.27
2017-10-24T01:09:01.690Z,21.67
2017-10-24T01:11:30.235Z,18.77
2017-10-24T01:13:58.647Z,22.60
2017-10-24T01:16:27.007Z,22.20
2017-10-24T01:18:56.153Z,17.90
2017-10-24T01:21:24.791Z,18.47
2017-10-24T01:23:53.142Z,20.97
2017-10-24T01:26:21.501Z,23.87
2017-10-24T01:28:50.580Z,20.07
2017-10-24T01:31:19.076Z,20.10
2017-10-24T01:33:47.374Z,22.83
2017-10-24T01:36:15.888Z,18.60
2017-10-24T01:38:44.250Z,19.20
2017-10-24T01:41:12.638Z,21.73
2017-10-24T01:43:41.001Z,21.00
2017-10-24T01:46:09.308Z,21.70
2017-10-24T01:48:37.701Z,25.57
2017-10-24T01:51:06.060Z,19.27
2017-10-24T01:53:34.413Z,19.73
2017-10-24T01:56:03.532Z,24.20
2017-10-24T01:58:32.664Z,19.23
2017-10-24T02:01:01.736Z,20.90
2017-10-24T02:03:30.859Z,20.17
2017-10-24T02:05:59.220Z,20.23
2017-10-24T02:08:27.568Z,18.93
2017-10-24T02:10:55.902Z,20.27
2017-10-24T02:13:24.212Z,22.53
2017-10-24T02:15:53.311Z,21.03
2017-10-24T02:18:22.456Z,18.73
2017-10-24T02:20:51.660Z,22.00
2017-10-24T02:23:20.017Z,17.57
2017-10-24T02:25:48.315Z,25.47
2017-10-24T02:28:17.436Z,18.63
2017-10-24T02:30:45.844Z,14.50
2017-10-24T02:33:14.169Z,20.13
2017-10-24T02:35:42.528Z,17.57
2017-10-24T02:38:11.692Z,22.30
2017-10-24T02:40:40.039Z,22.37
2017-10-24T02:43:08.417Z,20.10
2017-10-24T02:45:36.773Z,23.43
2017-10-24T02:48:05.090Z,18.43
2017-10-24T02:50:33.473Z,28.50
2017-10-24T02:53:01.794Z,26.63
2017-10-24T02:55:30.202Z,22.23
2017-10-24T02:57:58.564Z,35.13
2017-10-24T03:00:26.879Z,54.30
2017-10-24T03:02:55.252Z,42.53
2017-10-24T03:05:23.559Z,33.87
2017-10-24T03:07:51.904Z,26.70
2017-10-24T03:10:20.218Z,37.70
2017-10-24T03:12:48.575Z,46.40
2017-10-24T03:15:17.707Z,43.93
2017-10-24T03:17:46.089Z,61.73
2017-10-24T03:20:15.271Z,86.13
2017-10-24T03:22:43.577Z,53.73
2017-10-24T03:25:12.686Z,29.60
2017-10-24T03:27:41.788Z,41.63
2017-10-24T03:30:10.148Z,22.83
2017-10-24T03:32:38.495Z,28.13
2017-10-24T03:35:06.823Z,33.73
2017-10-24T03:37:35.118Z,67.60
2017-10-24T03:40:03.489Z,60.53
2017-10-24T03:42:31.839Z,92.83
2017-10-24T03:45:00.933Z,136.83
2017-10-24T03:47:29.327Z,128.90
2017-10-24T03:49:57.701Z,67.07
2017-10-24T03:52:26.047Z,73.17
2017-10-24T03:54:54.364Z,43.13
2017-10-24T03:57:22.748Z,83.53
2017-10-24T03:59:51.069Z,58.10
2017-10-24T04:02:19.380Z,55.23
2017-10-24T04:04:48.482Z,125.50
2017-10-24T04:07:17.551Z,111.23
2017-10-24T04:09:45.891Z,123.67
2017-10-24T04:12:14.999Z,99.03
2017-10-24T04:14:44.116Z,138.87
2017-10-24T04:17:12.431Z,173.30
2017-10-24T04:19:40.768Z,107.87
2017-10-24T04:22:09.111Z,62.37
2017-10-24T04:24:37.470Z,44.43
2017-10-24T04:27:05.813Z,40.97
2017-10-24T04:29:34.151Z,25.77
2017-10-24T04:32:03.280Z,19.63
2017-10-24T04:34:31.641Z,50.80
2017-10-24T04:37:00.772Z,52.07
2017-10-24T04:39:29.156Z,80.53
2017-10-24T04:41:57.533Z,46.03
2017-10-24T04:44:26.618Z,32.47
2017-10-24T04:46:54.936Z,39.83
2017-10-24T04:49:24.059Z,35.80
2017-10-24T04:51:52.363Z,48.13
2017-10-24T04:54:20.673Z,91.87
2017-10-24T04:56:49.023Z,189.40
2017-10-24T04:59:17.371Z,83.83
2017-10-24T05:01:45.738Z,83.43
2017-10-24T05:04:14.053Z,99.77
2017-10-24T05:06:42.433Z,83.87
2017-10-24T05:09:10.755Z,51.10
2017-10-24T05:11:39.883Z,108.20
2017-10-24T05:14:08.968Z,103.53
2017-10-24T05:16:38.295Z,102.07
2017-10-24T05:19:07.382Z,51.97
2017-10-24T05:21:35.700Z,55.33
2017-10-24T05:24:04.816Z,34.70
2017-10-24T05:26:33.196Z,42.20
2017-10-24T05:29:08.108Z,63.63
2017-10-24T05:31:36.456Z,34.80
2017-10-24T05:34:05.031Z,34.67
2017-10-24T05:36:34.167Z,65.50
2017-10-24T05:39:02.564Z,28.77
2017-10-24T05:41:30.902Z,23.30
2017-10-24T05:43:59.235Z,13.43
2017-10-24T05:46:27.591Z,17.27
2017-10-24T05:48:56.666Z,14.33
2017-10-24T05:51:25.002Z,26.40
2017-10-24T05:53:54.106Z,21.43
2017-10-24T05:56:23.195Z,21.83
2017-10-24T05:58:51.508Z,25.17
2017-10-24T06:01:20.631Z,36.07
2017-10-24T06:03:48.962Z,36.67
2017-10-24T06:06:17.298Z,26.73
2017-10-24T06:08:46.418Z,10.37
2017-10-24T06:11:14.758Z,14.63
2017-10-24T06:13:43.115Z,45.97
2017-10-24T06:16:11.475Z,17.53
2017-10-24T06:18:40.633Z,20.13
2017-10-24T06:21:09.702Z,33.17
2017-10-24T06:23:38.844Z,26.03
2017-10-24T06:26:07.211Z,15.20
2017-10-24T06:28:35.565Z,31.27
2017-10-24T06:31:03.874Z,35.37
2017-10-24T06:33:32.193Z,16.43
2017-10-24T06:36:00.498Z,17.67
2017-10-24T06:38:34.338Z,39.13
2017-10-24T06:41:02.699Z,54.47
2017-10-24T06:43:31.023Z,41.37
2017-10-24T06:45:59.315Z,24.00
2017-10-24T06:48:27.667Z,86.80
2017-10-24T06:50:58.926Z,43.20
2017-10-24T06:53:27.471Z,34.57
2017-10-24T06:55:55.809Z,86.53
2017-10-24T06:58:24.112Z,38.23
2017-10-24T07:00:52.471Z,49.87
2017-10-24T07:03:21.538Z,45.37
2017-10-24T07:05:49.844Z,25.97
2017-10-24T07:08:18.203Z,23.87
2017-10-24T07:10:46.515Z,19.50
2017-10-24T07:13:14.839Z,22.93
2017-10-24T07:15:43.899Z,14.87
2017-10-24T07:18:12.385Z,20.50
2017-10-24T07:20:40.911Z,23.50
2017-10-24T07:23:09.246Z,27.60
2017-10-24T07:25:37.535Z,21.63
2017-10-24T07:28:05.855Z,16.67
2017-10-24T07:30:34.200Z,28.03
2017-10-24T07:33:02.577Z,16.40
2017-10-24T07:35:30.867Z,16.83
2017-10-24T07:37:59.969Z,15.17
2017-10-24T07:40:28.359Z,14.80
2017-10-24T07:42:56.701Z,20.57
2017-10-24T07:45:25.047Z,15.90
2017-10-24T07:47:54.037Z,22.20
2017-10-24T07:50:22.345Z,18.80
2017-10-24T07:52:50.688Z,17.83
2017-10-24T07:55:19.836Z,17.47
2017-10-24T07:57:48.150Z,21.27
2017-10-24T08:00:17.328Z,16.30
2017-10-24T08:02:46.467Z,18.53
2017-10-24T08:05:15.597Z,17.43
2017-10-24T08:07:43.885Z,17.90
2017-10-24T08:10:12.248Z,19.07
2017-10-24T08:12:41.842Z,18.83
2017-10-24T08:24:25.890Z,24.80
2017-10-24T08:27:05.399Z,20.60
2017-10-24T08:29:33.731Z,25.77
2017-10-24T08:32:02.816Z,21.47
2017-10-24T08:34:31.160Z,24.47
2017-10-24T08:36:59.478Z,18.23
2017-10-24T08:39:27.789Z,24.03
2017-10-24T08:41:56.128Z,23.37
2017-10-24T08:44:24.461Z,21.90
2017-10-24T08:46:54.309Z,26.20
2017-10-24T08:49:23.371Z,30.77
2017-10-24T08:51:51.703Z,22.30
2017-10-24T08:54:20.809Z,34.37
2017-10-24T08:56:49.870Z,22.10
2017-10-24T08:59:18.170Z,21.07
2017-10-24T09:01:46.510Z,24.50
2017-10-24T09:04:15.576Z,21.23
2017-10-24T09:06:47.726Z,21.03
2017-10-24T09:12:18.775Z,27.27
2017-10-24T09:14:47.841Z,17.87
2017-10-24T09:17:36.899Z,25.50
2017-10-24T09:20:05.991Z,20.90
2017-10-24T09:22:35.070Z,21.20
2017-10-24T09:25:03.396Z,17.47
2017-10-24T09:27:31.766Z,16.87
2017-10-24T09:30:00.916Z,20.80
2017-10-24T09:32:33.358Z,13.97
2017-10-24T09:35:02.463Z,18.13
2017-10-24T09:37:31.528Z,14.27
2017-10-24T09:39:59.837Z,14.17
2017-10-24T09:42:28.180Z,15.37
2017-10-24T09:44:56.479Z,17.67
2017-10-24T09:47:24.792Z,16.80
2017-10-24T09:49:57.635Z,19.47
2017-10-24T09:52:26.732Z,20.17
2017-10-24T09:54:55.786Z,26.63
2017-10-24T09:57:24.120Z,25.20
2017-10-24T09:59:53.964Z,22.93
2017-10-24T10:02:23.046Z,28.63
2017-10-24T10:04:52.884Z,19.60
2017-10-24T10:07:21.957Z,16.93
2017-10-24T10:09:50.284Z,19.30
2017-10-24T10:12:18.904Z,22.67
2017-10-24T10:14:47.236Z,21.93
2017-10-24T10:17:15.546Z,22.23
2017-10-24T10:19:45.393Z,20.10
2017-10-24T10:22:14.490Z,18.93
2017-10-24T10:24:43.555Z,22.57
2017-10-24T10:27:11.908Z,21.53
2017-10-24T10:29:40.987Z,19.30
2017-10-24T10:32:09.322Z,24.03
2017-10-24T10:34:37.642Z,18.90
2017-10-24T10:37:05.946Z,18.00
2017-10-24T10:39:34.422Z,19.97
2017-10-24T10:42:02.724Z,18.73
2017-10-24T10:44:31.030Z,15.70
2017-10-24T10:46:59.354Z,13.37
2017-10-24T10:49:28.440Z,13.30
2017-10-24T10:51:56.774Z,12.60
2017-10-24T10:54:25.070Z,14.90
2017-10-24T10:56:55.206Z,12.57
2017-10-24T10:59:23.545Z,11.47
2017-10-24T11:01:53.367Z,12.90
2017-10-24T11:04:23.186Z,9.67
2017-10-24T11:06:51.476Z,10.07
2017-10-24T11:09:21.311Z,8.50
2017-10-24T11:11:51.126Z,8.40
2017-10-24T11:14:20.951Z,9.67
2017-10-24T11:16:49.234Z,9.07
2017-10-24T11:19:17.558Z,10.20
2017-10-24T11:21:46.712Z,10.10
2017-10-24T11:24:15.011Z,13.07
2017-10-24T11:26:43.344Z,11.40
2017-10-24T11:29:12.395Z,11.00
2017-10-24T11:31:40.683Z,22.37
2017-10-24T11:34:09.032Z,10.83
2017-10-24T11:36:38.087Z,8.63
2017-10-24T11:39:06.370Z,14.70
2017-10-24T11:41:34.704Z,13.50
2017-10-24T11:44:03.776Z,13.57
2017-10-24T11:46:32.067Z,13.57
2017-10-24T11:49:00.399Z,10.03
2017-10-24T11:51:29.468Z,17.30
2017-10-24T11:53:57.791Z,13.83
2017-10-24T11:56:26.883Z,12.60
2017-10-24T11:58:55.271Z,13.23
2017-10-24T12:01:23.596Z,16.87
2017-10-24T12:03:52.706Z,11.93
2017-10-24T12:06:21.772Z,13.70
2017-10-24T12:08:50.086Z,12.83
2017-10-24T12:11:19.911Z,14.77
2017-10-24T12:13:49.016Z,12.37
2017-10-24T12:16:18.808Z,16.70
2017-10-24T12:18:47.146Z,14.13
2017-10-24T12:21:16.239Z,17.13
2017-10-24T12:23:45.331Z,12.50
2017-10-24T12:26:13.687Z,12.50
2017-10-24T12:28:41.971Z,13.57
2017-10-24T12:31:10.273Z,14.00
2017-10-24T12:33:38.600Z,16.10
2017-10-24T12:36:07.704Z,15.27
2017-10-24T12:38:37.514Z,16.80
2017-10-24T12:41:09.040Z,13.30
2017-10-24T12:46:21.035Z,15.07
2017-10-24T12:48:51.422Z,12.27
2017-10-24T12:51:19.742Z,15.83
2017-10-24T12:53:48.044Z,12.63
2017-10-24T12:56:17.871Z,12.17
2017-10-24T12:58:47.670Z,16.53
2017-10-24T13:01:15.991Z,16.57
2017-10-24T13:03:45.056Z,16.10
2017-10-24T13:06:13.382Z,14.07
2017-10-24T13:08:42.439Z,17.73
2017-10-24T13:11:10.767Z,14.90
2017-10-24T13:13:39.056Z,10.73
2017-10-24T13:16:07.385Z,17.23
2017-10-24T13:18:36.435Z,12.23
2017-10-24T13:21:04.757Z,11.67
2017-10-24T13:23:34.550Z,10.53
2017-10-24T13:26:02.933Z,16.00
2017-10-24T13:28:31.224Z,9.67
2017-10-24T13:30:59.514Z,13.57
2017-10-24T13:33:27.866Z,9.57
2017-10-24T13:35:56.923Z,12.93
2017-10-24T13:38:25.216Z,11.07
2017-10-24T13:40:53.536Z,8.87
2017-10-24T13:43:22.588Z,7.40
2017-10-24T13:45:50.906Z,12.73
2017-10-24T13:48:19.191Z,8.37
2017-10-24T13:50:47.541Z,7.20
2017-10-24T13:53:15.819Z,6.90
2017-10-24T13:55:44.867Z,6.53
2017-10-24T13:58:13.190Z,6.13
2017-10-24T14:00:42.985Z,8.00
2017-10-24T14:03:11.276Z,7.60
2017-10-24T14:05:45.198Z,9.07
2017-10-24T14:08:19.197Z,6.47
2017-10-24T14:10:47.519Z,11.80
2017-10-24T14:13:15.809Z,7.27
2017-10-24T14:15:44.127Z,5.17
2017-10-24T14:18:13.184Z,10.00
2017-10-24T14:20:41.520Z,7.03
2017-10-24T14:23:10.611Z,12.73
2017-10-24T14:25:38.919Z,7.33
2017-10-24T14:28:08.015Z,12.90
2017-10-24T14:30:36.299Z,5.73
2017-10-24T14:33:04.637Z,8.20
2017-10-24T14:35:32.920Z,9.93
2017-10-24T14:38:01.239Z,12.17
2017-10-24T14:40:29.523Z,9.53
2017-10-24T14:42:57.854Z,8.97
2017-10-24T14:45:26.147Z,10.43
2017-10-24T14:47:55.207Z,10.00
2017-10-24T14:50:23.537Z,10.53
2017-10-24T14:52:53.375Z,10.80
2017-10-24T14:55:22.432Z,12.53
2017-10-24T14:57:50.725Z,13.53
2017-10-24T15:00:19.044Z,11.73
2017-10-24T15:02:47.343Z,11.70
2017-10-24T15:05:17.172Z,13.93
2017-10-24T15:07:46.233Z,10.50
2017-10-24T15:10:14.548Z,11.73
2017-10-24T15:12:42.848Z,9.40
2017-10-24T15:15:12.675Z,11.97
2017-10-24T15:17:42.463Z,14.23
2017-10-24T15:20:10.791Z,11.53
2017-10-24T15:22:40.598Z,15.27
2017-10-24T15:25:08.946Z,14.47
2017-10-24T15:27:37.231Z,17.43
2017-10-24T15:30:05.529Z,15.60
2017-10-24T15:32:33.873Z,16.93
2017-10-24T15:35:02.201Z,20.63
2017-10-24T15:37:30.498Z,17.53
2017-10-24T15:39:58.840Z,17.63
2017-10-24T15:42:28.665Z,16.07
2017-10-24T15:44:56.994Z,18.13
2017-10-24T15:47:25.340Z,16.50
2017-10-24T15:49:53.668Z,20.70
2017-10-24T15:52:22.009Z,21.97
2017-10-24T15:54:51.876Z,17.13
2017-10-24T15:57:20.943Z,17.30
2017-10-24T15:59:49.251Z,19.67
2017-10-24T16:02:18.346Z,16.57
2017-10-24T16:04:46.684Z,19.97
2017-10-24T16:07:14.984Z,20.30
2017-10-24T16:09:43.325Z,20.83
2017-10-24T16:12:13.156Z,22.70
2017-10-24T16:14:42.223Z,23.27
2017-10-24T16:17:10.587Z,23.97
2017-10-24T16:19:38.916Z,18.43
2017-10-24T16:22:07.212Z,19.23
2017-10-24T16:24:37.065Z,19.20
2017-10-24T16:27:06.127Z,22.10
2017-10-24T16:29:34.463Z,21.87
2017-10-24T16:32:03.544Z,20.00
2017-10-24T16:34:31.897Z,18.93
2017-10-24T16:37:00.951Z,20.60
2017-10-24T16:39:29.295Z,20.77
2017-10-24T16:41:57.624Z,17.70
2017-10-24T16:44:26.734Z,23.67
2017-10-24T16:46:55.062Z,16.43
2017-10-24T16:49:23.364Z,26.87
2017-10-24T16:51:51.683Z,22.40
2017-10-24T16:54:20.040Z,24.03
2017-10-24T16:56:48.338Z,21.37
2017-10-24T16:59:16.649Z,22.10
2017-10-24T17:01:44.984Z,22.53
2017-10-24T17:04:14.079Z,25.03
2017-10-24T17:06:42.418Z,31.87
2017-10-24T17:09:10.719Z,30.67
2017-10-24T17:11:39.076Z,23.70
2017-10-24T17:14:08.171Z,26.03
2017-10-24T17:16:37.230Z,31.00
2017-10-24T17:19:05.573Z,23.30
2017-10-24T17:21:34.639Z,28.20
2017-10-24T17:24:02.963Z,30.20
2017-10-24T17:26:32.072Z,25.27
2017-10-24T17:29:01.167Z,22.93
2017-10-24T17:31:29.467Z,21.90
2017-10-24T17:33:57.789Z,25.20
2017-10-24T17:36:26.128Z,26.40
2017-10-24T17:38:55.222Z,24.87
2017-10-24T17:41:23.549Z,39.10
2017-10-24T17:43:52.608Z,22.83
2017-10-24T17:46:20.935Z,28.97
2017-10-24T17:48:50.770Z,23.60
2017-10-24T17:51:19.886Z,26.00
2017-10-24T17:53:48.953Z,25.90
2017-10-24T17:56:17.279Z,27.10
2017-10-24T17:58:46.356Z,25.07
2017-10-24T18:01:14.679Z,22.17
2017-10-24T19:27:51.903Z,22.67
2017-10-24T19:30:20.203Z,18.43
2017-10-24T19:32:48.518Z,21.73
2017-10-24T19:35:18.346Z,22.53
2017-10-24T19:37:47.455Z,22.97
2017-10-24T19:40:16.562Z,19.27
2017-10-24T19:42:45.653Z,19.30
2017-10-24T19:45:13.943Z,23.30
2017-10-24T19:47:42.280Z,25.13
2017-10-24T19:50:11.356Z,23.73
2017-10-24T19:52:39.690Z,23.10
2017-10-24T19:55:07.983Z,18.60
2017-10-24T19:57:36.330Z,16.63
2017-10-24T20:00:05.724Z,18.50
2017-10-24T20:02:34.076Z,16.50
2017-10-24T20:05:02.725Z,17.87
2017-10-24T20:07:31.136Z,16.50
2017-10-24T20:10:00.240Z,15.00
2017-10-24T20:12:29.295Z,17.20
2017-10-24T20:14:57.623Z,19.97
2017-10-24T20:17:25.925Z,18.33
2017-10-24T20:19:55.023Z,20.23
2017-10-24T20:22:24.815Z,20.37
2017-10-24T20:24:53.163Z,20.50
2017-10-24T20:27:21.490Z,14.23
2017-10-24T20:29:49.801Z,18.50
2017-10-24T20:32:18.903Z,13.07
2017-10-24T20:34:47.250Z,18.10
2017-10-24T20:37:15.542Z,12.80
2017-10-24T20:39:43.825Z,14.20
2017-10-24T20:42:12.153Z,12.37
2017-10-24T20:44:40.476Z,13.73
2017-10-24T20:47:08.768Z,12.57
2017-10-24T20:49:37.866Z,10.33
2017-10-24T20:52:07.697Z,15.47
2017-10-24T20:54:36.007Z,12.00
2017-10-24T20:57:05.283Z,12.10
2017-10-24T20:59:35.127Z,14.90
2017-10-24T21:02:04.541Z,10.97
2017-10-24T21:04:32.859Z,13.67
2017-10-24T21:07:01.192Z,12.63
2017-10-24T21:09:29.964Z,11.80
2017-10-24T21:11:58.291Z,10.53
2017-10-24T21:14:26.591Z,11.63
2017-10-24T21:16:54.919Z,9.37
2017-10-24T21:19:23.230Z,11.90
2017-10-24T21:21:51.558Z,9.73
2017-10-24T21:24:21.364Z,10.60
2017-10-24T21:26:49.644Z,12.00
2017-10-24T21:29:17.971Z,9.03
2017-10-24T21:31:47.859Z,15.27
2017-10-24T21:34:16.183Z,9.33
2017-10-24T21:36:50.199Z,11.17
2017-10-24T21:39:19.566Z,10.60
2017-10-24T21:41:47.852Z,11.80
2017-10-24T21:44:16.172Z,12.10
2017-10-24T21:46:44.490Z,10.50
2017-10-24T21:49:12.833Z,9.70
2017-10-24T21:51:41.123Z,8.30
2017-10-24T21:54:09.444Z,9.60
2017-10-24T21:56:37.768Z,10.17
2017-10-24T21:59:06.858Z,9.00
2017-10-24T22:01:36.293Z,8.00
2017-10-24T22:04:05.369Z,10.50
2017-10-24T22:06:33.699Z,14.70
2017-10-24T22:09:02.761Z,10.53
2017-10-24T22:11:31.100Z,13.37
2017-10-24T22:14:00.188Z,12.67
2017-10-24T22:16:28.512Z,10.70
2017-10-24T22:18:56.800Z,13.30
2017-10-24T22:21:25.123Z,13.57
2017-10-24T22:23:53.419Z,11.00
2017-10-24T22:26:21.755Z,10.90
2017-10-24T22:28:50.823Z,11.10
2017-10-24T22:31:19.133Z,11.07
2017-10-24T22:33:47.459Z,10.60
2017-10-24T22:36:15.751Z,16.17
2017-10-24T22:38:44.854Z,10.37
2017-10-24T22:41:13.949Z,10.40
2017-10-24T22:43:42.236Z,11.53
2017-10-24T22:46:10.556Z,9.50
2017-10-24T22:48:38.851Z,10.07
2017-10-24T23:04:34.091Z,19.13
2017-10-24T23:07:02.426Z,10.03
2017-10-24T23:09:30.717Z,12.37
2017-10-24T23:11:59.051Z,11.07
2017-10-24T23:14:27.362Z,11.03
2017-10-24T23:16:55.697Z,13.00
2017-10-24T23:19:24.769Z,17.80
2017-10-24T23:21:53.082Z,9.07
2017-10-24T23:24:22.184Z,10.00
2017-10-24T23:26:51.974Z,11.90
2017-10-24T23:29:20.304Z,10.20
2017-10-24T23:31:49.360Z,9.43
2017-10-24T23:34:17.666Z,13.10
2017-10-24T23:36:45.960Z,9.57
2017-10-24T23:39:14.286Z,10.63
2017-10-24T23:41:43.384Z,8.90
2017-10-24T23:44:13.172Z,10.07
2017-10-24T23:46:41.506Z,10.97
2017-10-24T23:49:10.577Z,9.63
2017-10-24T23:51:38.869Z,8.40
2017-10-24T23:54:07.187Z,9.40
2017-10-24T23:56:36.251Z,8.63
2017-10-24T23:59:04.568Z,15.20
